createdAt,value
2023-02-16T00:01:53.323Z,11.00
2023-02-16T00:04:21.531Z,12.27
2023-02-16T00:06:49.402Z,11.27
2023-02-16T00:09:16.983Z,12.98
2023-02-16T00:12:02.775Z,13.57
2023-02-16T00:14:29.590Z,11.00
2023-02-16T00:16:57.814Z,9.15
2023-02-16T00:19:29.874Z,80.53
2023-02-16T00:21:58.692Z,24.98
2023-02-16T00:24:26.807Z,10.98
2023-02-16T00:26:53.939Z,11.18
2023-02-16T00:29:21.540Z,8.13
2023-02-16T00:31:48.945Z,8.88
2023-02-16T00:34:57.095Z,8.52
2023-02-16T00:37:23.894Z,12.73
2023-02-16T00:39:50.628Z,11.50
2023-02-16T00:42:20.325Z,8.25
2023-02-16T00:44:49.301Z,9.82
2023-02-16T00:47:20.220Z,10.15
2023-02-16T00:49:52.429Z,10.45
2023-02-16T00:52:25.168Z,7.22
2023-02-16T00:54:52.371Z,11.98
2023-02-16T00:57:19.316Z,13.27
2023-02-16T00:59:47.306Z,12.57
2023-02-16T01:02:14.429Z,13.43
2023-02-16T01:04:42.341Z,10.23
2023-02-16T01:07:34.938Z,9.70
2023-02-16T01:10:20.348Z,13.25
2023-02-16T01:12:47.144Z,12.57
2023-02-16T01:15:15.441Z,8.48
2023-02-16T01:17:42.164Z,13.00
2023-02-16T01:20:17.697Z,15.25
2023-02-16T01:22:44.732Z,14.80
2023-02-16T01:25:12.075Z,16.23
2023-02-16T01:27:39.265Z,16.92
2023-02-16T01:30:07.768Z,12.88
2023-02-16T01:32:34.681Z,25.92
2023-02-16T01:35:01.453Z,11.50
2023-02-16T01:37:29.325Z,13.80
2023-02-16T01:39:56.002Z,10.60
2023-02-16T01:42:52.007Z,12.38
2023-02-16T01:45:29.853Z,13.00
2023-02-16T01:48:03.292Z,13.55
2023-02-16T01:51:02.147Z,12.63
2023-02-16T01:53:41.890Z,11.30
2023-02-16T01:56:22.061Z,12.43
2023-02-16T01:58:55.461Z,11.65
2023-02-16T02:02:04.531Z,13.18
2023-02-16T02:05:02.690Z,14.00
2023-02-16T02:07:37.310Z,12.90
2023-02-16T02:10:15.765Z,12.05
2023-02-16T02:13:03.428Z,14.05
2023-02-16T02:15:32.318Z,16.25
2023-02-16T02:17:59.218Z,12.45
2023-02-16T02:21:13.204Z,15.27
2023-02-16T02:23:49.416Z,15.80
2023-02-16T02:26:34.864Z,17.63
2023-02-16T02:29:25.988Z,11.65
2023-02-16T02:31:56.174Z,11.30
2023-02-16T02:34:47.015Z,15.57
2023-02-16T02:37:27.504Z,15.48
2023-02-16T02:40:26.657Z,11.32
2023-02-16T02:43:01.021Z,16.35
2023-02-16T02:45:42.881Z,17.35
2023-02-16T02:48:09.965Z,14.00
2023-02-16T02:51:10.866Z,13.68
2023-02-16T02:53:47.770Z,17.77
2023-02-16T02:56:35.103Z,16.30
2023-02-16T02:59:24.036Z,13.32
2023-02-16T03:01:55.228Z,24.98
2023-02-16T03:04:26.003Z,16.92
2023-02-16T03:06:55.088Z,16.02
2023-02-16T03:09:22.016Z,15.15
2023-02-16T03:12:08.376Z,15.82
2023-02-16T03:14:43.390Z,16.25
2023-02-16T03:17:35.476Z,15.45
2023-02-16T03:20:24.016Z,16.85
2023-02-16T03:23:09.971Z,14.00
2023-02-16T03:25:57.224Z,19.90
2023-02-16T03:28:45.198Z,17.38
2023-02-16T03:31:15.830Z,17.40
2023-02-16T03:33:43.042Z,19.48
2023-02-16T03:36:09.939Z,17.88
2023-02-16T03:38:37.772Z,13.00
2023-02-16T03:41:05.457Z,18.65
2023-02-16T03:43:32.841Z,14.55
2023-02-16T03:45:59.578Z,13.45
2023-02-16T03:48:26.341Z,10.52
2023-02-16T03:50:53.065Z,16.60
2023-02-16T03:53:19.855Z,14.93
2023-02-16T03:55:47.903Z,15.13
2023-02-16T03:58:17.144Z,15.07
2023-02-16T04:00:44.158Z,15.05
2023-02-16T04:03:10.948Z,11.10
2023-02-16T04:05:37.954Z,12.82
2023-02-16T04:08:05.525Z,15.70
2023-02-16T04:10:32.545Z,17.13
2023-02-16T04:12:59.463Z,13.02
2023-02-16T04:15:27.402Z,9.95
2023-02-16T04:17:54.299Z,13.85
2023-02-16T04:20:24.911Z,15.80
2023-02-16T04:22:51.775Z,14.27
2023-02-16T04:25:18.999Z,17.08
2023-02-16T04:27:46.580Z,16.30
2023-02-16T04:30:15.930Z,13.38
2023-02-16T04:32:42.985Z,13.82
2023-02-16T04:35:09.894Z,12.50
2023-02-16T04:37:36.775Z,14.40
2023-02-16T04:40:04.744Z,13.45
2023-02-16T04:42:31.681Z,15.27
2023-02-16T04:44:58.346Z,13.55
2023-02-16T04:47:28.688Z,16.88
2023-02-16T04:49:55.510Z,12.05
2023-02-16T04:52:22.172Z,14.70
2023-02-16T04:54:48.911Z,12.98
2023-02-16T04:57:16.384Z,11.68
2023-02-16T04:59:43.087Z,12.93
2023-02-16T05:02:09.747Z,11.75
2023-02-16T05:04:36.718Z,11.75
2023-02-16T05:07:03.352Z,14.38
2023-02-16T05:09:30.075Z,15.02
2023-02-16T05:12:15.489Z,17.27
2023-02-16T05:14:42.236Z,16.42
2023-02-16T05:17:15.180Z,15.98
2023-02-16T05:19:43.604Z,10.10
2023-02-16T05:22:10.885Z,9.45
2023-02-16T05:24:37.832Z,14.48
2023-02-16T05:27:06.499Z,11.95
2023-02-16T05:29:33.780Z,14.88
2023-02-16T05:32:02.642Z,13.18
2023-02-16T05:34:31.593Z,10.63
2023-02-16T05:36:58.359Z,9.82
2023-02-16T05:39:25.129Z,12.80
2023-02-16T05:41:51.895Z,13.45
2023-02-16T05:44:18.652Z,13.73
2023-02-16T05:46:46.576Z,12.05
2023-02-16T05:49:14.497Z,12.52
2023-02-16T05:51:41.686Z,15.45
2023-02-16T05:54:10.694Z,14.07
2023-02-16T05:56:37.424Z,15.38
2023-02-16T05:59:04.170Z,34.53
2023-02-16T06:01:30.814Z,21.88
2023-02-16T06:03:57.625Z,16.05
2023-02-16T06:06:24.372Z,8.95
2023-02-16T06:08:51.316Z,14.90
2023-02-16T06:11:36.096Z,12.73
2023-02-16T06:14:21.536Z,16.05
2023-02-16T06:16:49.699Z,11.82
2023-02-16T06:19:17.556Z,10.82
2023-02-16T06:21:44.547Z,15.18
2023-02-16T06:24:12.984Z,12.68
2023-02-16T06:26:39.811Z,13.95
2023-02-16T06:29:06.715Z,9.50
2023-02-16T06:31:36.242Z,14.57
2023-02-16T06:34:04.188Z,14.25
2023-02-16T06:36:31.397Z,9.60
2023-02-16T06:38:58.304Z,13.52
2023-02-16T06:41:40.469Z,18.00
2023-02-16T06:44:12.388Z,21.00
2023-02-16T06:46:40.828Z,28.27
2023-02-16T06:49:07.817Z,33.45
2023-02-16T06:51:34.612Z,26.80
2023-02-16T06:54:02.583Z,39.38
2023-02-16T06:56:29.406Z,31.80
2023-02-16T06:58:56.035Z,26.52
2023-02-16T07:01:23.555Z,18.05
2023-02-16T07:03:50.835Z,16.25
2023-02-16T07:06:17.931Z,26.27
2023-02-16T07:08:44.708Z,22.30
2023-02-16T07:11:11.879Z,26.13
2023-02-16T07:13:38.635Z,18.85
2023-02-16T07:16:06.484Z,21.38
2023-02-16T07:18:33.868Z,22.63
2023-02-16T07:21:00.831Z,24.02
2023-02-16T07:23:27.913Z,29.02
2023-02-16T07:25:54.644Z,24.45
2023-02-16T07:28:21.352Z,21.70
2023-02-16T07:30:48.230Z,17.52
2023-02-16T07:33:15.613Z,15.68
2023-02-16T07:35:42.688Z,17.67
2023-02-16T07:38:09.892Z,15.88
2023-02-16T07:40:36.649Z,14.82
2023-02-16T07:43:04.835Z,18.70
2023-02-16T07:45:35.256Z,12.75
2023-02-16T07:48:02.549Z,16.98
2023-02-16T07:50:29.256Z,14.38
2023-02-16T07:52:56.024Z,14.57
2023-02-16T07:55:22.667Z,10.68
2023-02-16T07:57:52.926Z,14.15
2023-02-16T08:00:20.244Z,12.95
2023-02-16T08:02:47.026Z,10.63
2023-02-16T08:05:13.901Z,15.98
2023-02-16T08:07:41.912Z,12.35
2023-02-16T08:10:09.526Z,13.07
2023-02-16T08:12:37.440Z,11.95
2023-02-16T08:15:04.808Z,15.77
2023-02-16T08:17:31.613Z,12.85
2023-02-16T08:19:58.350Z,11.98
2023-02-16T08:22:25.036Z,9.85
2023-02-16T08:24:51.840Z,13.00
2023-02-16T08:27:18.560Z,10.88
2023-02-16T08:29:45.738Z,13.35
2023-02-16T08:32:13.447Z,9.35
2023-02-16T08:34:42.950Z,9.77
2023-02-16T08:37:12.467Z,14.40
2023-02-16T08:39:40.054Z,11.80
2023-02-16T08:42:06.848Z,11.40
2023-02-16T08:44:33.817Z,10.48
2023-02-16T08:47:02.758Z,6.97
2023-02-16T08:49:29.571Z,12.95
2023-02-16T08:51:58.478Z,9.85
2023-02-16T08:54:28.098Z,11.82
2023-02-16T08:56:55.765Z,17.15
2023-02-16T08:59:25.508Z,15.77
2023-02-16T09:04:20.294Z,18.63
2023-02-16T09:06:48.565Z,12.63
2023-02-16T09:09:15.761Z,17.50
2023-02-16T09:11:43.127Z,15.27
2023-02-16T09:14:10.539Z,11.68
2023-02-16T09:16:43.806Z,14.40
2023-02-16T09:19:10.946Z,14.55
2023-02-16T09:21:37.637Z,10.90
2023-02-16T09:24:05.254Z,11.82
2023-02-16T09:26:34.447Z,13.15
2023-02-16T09:29:02.259Z,16.35
2023-02-16T09:31:32.707Z,14.35
2023-02-16T09:34:04.140Z,12.88
2023-02-16T09:36:31.965Z,11.45
2023-02-16T09:38:59.573Z,14.65
2023-02-16T09:42:05.266Z,9.23
2023-02-16T09:45:11.628Z,8.07
2023-02-16T09:47:41.025Z,6.30
2023-02-16T09:50:50.327Z,23.20
2023-02-16T09:53:21.635Z,24.17
2023-02-16T09:56:10.086Z,19.02
2023-02-16T09:58:45.476Z,12.60
2023-02-16T10:01:33.839Z,12.52
2023-02-16T10:04:12.101Z,15.57
2023-02-16T10:06:58.968Z,19.40
2023-02-16T10:09:27.384Z,13.88
2023-02-16T10:12:08.154Z,14.45
2023-02-16T10:17:07.756Z,12.48
2023-02-16T10:19:59.698Z,8.10
2023-02-16T10:22:36.397Z,11.18
2023-02-16T10:25:12.427Z,10.40
2023-02-16T10:27:42.095Z,12.57
2023-02-16T10:30:17.443Z,10.25
2023-02-16T10:33:14.398Z,10.95
2023-02-16T10:35:50.164Z,6.75
2023-02-16T10:38:34.343Z,8.75
2023-02-16T10:41:04.387Z,6.20
2023-02-16T10:43:37.516Z,8.68
2023-02-16T10:46:06.056Z,6.45
2023-02-16T10:48:33.096Z,5.93
2023-02-16T10:51:04.357Z,14.55
2023-02-16T10:53:39.685Z,7.20
2023-02-16T10:56:49.611Z,6.47
2023-02-16T10:59:30.606Z,4.85
2023-02-16T11:01:59.130Z,4.60
2023-02-16T11:04:34.449Z,7.53
2023-02-16T11:07:03.863Z,3.78
2023-02-16T11:09:30.796Z,6.57
2023-02-16T11:11:58.023Z,4.22
2023-02-16T11:14:30.387Z,7.00
2023-02-16T11:17:12.270Z,4.75
2023-02-16T11:19:40.373Z,6.10
2023-02-16T11:22:10.930Z,3.42
2023-02-16T11:24:38.466Z,4.75
2023-02-16T11:27:15.743Z,7.10
2023-02-16T11:29:42.521Z,3.40
2023-02-16T11:32:12.034Z,2.70
2023-02-16T11:34:50.340Z,5.75
2023-02-16T11:37:29.138Z,3.75
2023-02-16T11:39:58.664Z,3.03
2023-02-16T11:42:40.450Z,5.05
2023-02-16T11:45:08.280Z,6.75
2023-02-16T11:47:38.153Z,5.85
2023-02-16T11:50:27.079Z,6.10
2023-02-16T11:52:58.185Z,10.25
2023-02-16T11:55:28.851Z,6.68
2023-02-16T12:00:24.700Z,5.78
2023-02-16T12:03:16.830Z,5.38
2023-02-16T12:05:43.543Z,6.10
2023-02-16T12:08:23.496Z,7.03
2023-02-16T12:11:19.442Z,6.72
2023-02-16T12:14:15.874Z,6.53
2023-02-16T12:17:13.167Z,3.63
2023-02-16T12:19:42.850Z,4.95
2023-02-16T12:22:49.379Z,7.13
2023-02-16T12:25:25.565Z,3.72
2023-02-16T12:28:05.120Z,5.63
2023-02-16T12:30:46.303Z,3.55
2023-02-16T12:33:49.421Z,5.35
2023-02-16T12:36:47.181Z,7.70
2023-02-16T12:39:31.193Z,4.25
2023-02-16T12:42:35.187Z,3.95
2023-02-16T12:45:08.482Z,4.38
2023-02-16T12:47:40.045Z,7.38
2023-02-16T12:50:16.963Z,6.30
2023-02-16T12:52:48.480Z,6.50
2023-02-16T12:55:20.692Z,6.20
2023-02-16T12:58:02.935Z,3.83
2023-02-16T13:00:41.893Z,3.45
2023-02-16T13:03:15.234Z,4.93
2023-02-16T13:05:42.394Z,6.25
2023-02-16T13:08:25.458Z,9.73
2023-02-16T13:10:56.662Z,4.63
2023-02-16T13:13:27.467Z,4.68
2023-02-16T13:16:24.117Z,6.28
2023-02-16T13:18:57.250Z,7.20
2023-02-16T13:21:50.520Z,2.65
2023-02-16T13:24:46.679Z,4.45
2023-02-16T13:27:22.500Z,4.47
2023-02-16T13:29:56.120Z,4.35
2023-02-16T13:32:32.047Z,6.57
2023-02-16T13:35:16.517Z,6.88
2023-02-16T13:37:59.068Z,10.05
2023-02-16T13:40:41.037Z,4.03
2023-02-16T13:43:15.134Z,3.72
2023-02-16T13:45:44.552Z,5.40
2023-02-16T13:48:31.677Z,5.38
2023-02-16T13:51:01.302Z,4.43
2023-02-16T13:53:34.719Z,4.18
2023-02-16T13:56:17.759Z,4.85
2023-02-16T13:58:44.568Z,2.78
2023-02-16T14:01:34.261Z,4.78
2023-02-16T14:04:02.268Z,3.05
2023-02-16T14:06:38.113Z,4.10
2023-02-16T14:09:11.132Z,3.72
2023-02-16T14:11:53.321Z,4.32
2023-02-16T14:14:36.924Z,4.85
2023-02-16T14:17:22.432Z,4.07
2023-02-16T14:19:55.281Z,5.07
2023-02-16T14:22:48.464Z,14.73
2023-02-16T14:25:22.279Z,5.60
2023-02-16T14:27:54.113Z,4.25
2023-02-16T14:30:39.224Z,5.53
2023-02-16T14:33:18.084Z,7.43
2023-02-16T14:35:46.103Z,4.55
2023-02-16T14:38:33.792Z,4.53
2023-02-16T14:41:02.570Z,3.90
2023-02-16T14:43:47.109Z,4.55
2023-02-16T14:46:35.975Z,3.80
2023-02-16T14:49:50.987Z,6.47
2023-02-16T14:52:37.131Z,6.00
2023-02-16T14:55:30.245Z,3.53
2023-02-16T14:58:15.997Z,9.15
2023-02-16T15:00:48.344Z,3.92
2023-02-16T15:03:22.254Z,3.92
2023-02-16T15:06:04.309Z,6.40
2023-02-16T15:08:37.467Z,3.67
2023-02-16T15:11:13.149Z,4.03
2023-02-16T15:13:40.035Z,4.30
2023-02-16T15:16:09.252Z,5.05
2023-02-16T15:18:47.849Z,8.23
2023-02-16T15:21:32.688Z,5.50
2023-02-16T15:24:01.311Z,4.13
2023-02-16T15:26:31.469Z,7.30
2023-02-16T15:29:01.168Z,3.97
2023-02-16T15:31:37.947Z,3.33
2023-02-16T15:34:07.553Z,3.88
2023-02-16T15:36:36.860Z,4.82
2023-02-16T15:39:09.773Z,8.43
2023-02-16T15:41:38.851Z,5.70
2023-02-16T15:44:12.862Z,4.43
2023-02-16T15:46:42.151Z,3.47
2023-02-16T15:49:22.338Z,6.88
2023-02-16T15:51:49.316Z,5.18
2023-02-16T15:54:28.157Z,4.97
2023-02-16T15:56:56.177Z,5.13
2023-02-16T15:59:32.911Z,5.20
2023-02-16T16:02:35.849Z,7.47
2023-02-16T16:05:05.530Z,3.70
2023-02-16T16:07:37.664Z,4.10
2023-02-16T16:10:15.661Z,5.45
2023-02-16T16:12:43.368Z,11.88
2023-02-16T16:15:18.068Z,9.15
2023-02-16T16:17:44.921Z,6.60
2023-02-16T16:20:36.171Z,6.80
2023-02-16T16:23:24.908Z,10.32
2023-02-16T16:25:52.177Z,5.45
2023-02-16T16:28:25.013Z,3.40
2023-02-16T16:31:38.509Z,4.32
2023-02-16T16:34:10.697Z,5.20
2023-02-16T16:36:47.196Z,4.95
2023-02-16T16:39:16.590Z,3.65
2023-02-16T16:41:56.772Z,5.30
2023-02-16T16:44:36.761Z,3.90
2023-02-16T16:47:25.248Z,5.45
2023-02-16T16:49:57.620Z,8.40
2023-02-16T16:52:47.811Z,5.78
2023-02-16T16:55:21.593Z,5.68
2023-02-16T16:57:54.710Z,4.63
2023-02-16T17:00:22.589Z,3.47
2023-02-16T17:02:49.442Z,4.78
2023-02-16T17:05:16.250Z,5.05
2023-02-16T17:07:43.299Z,7.70
2023-02-16T17:10:10.257Z,5.90
2023-02-16T17:12:36.980Z,4.30
2023-02-16T17:15:04.166Z,10.85
2023-02-16T17:17:31.295Z,5.82
2023-02-16T17:19:58.077Z,10.40
2023-02-16T17:22:24.721Z,6.00
2023-02-16T17:24:51.517Z,10.95
2023-02-16T17:27:19.762Z,9.70
2023-02-16T17:29:46.692Z,8.98
2023-02-16T17:32:13.551Z,7.93
2023-02-16T17:34:40.385Z,5.25
2023-02-16T17:37:09.810Z,3.75
2023-02-16T17:39:36.648Z,4.35
2023-02-16T17:42:03.659Z,8.23
2023-02-16T17:44:30.425Z,2.90
2023-02-16T17:46:57.098Z,6.53
2023-02-16T17:49:23.968Z,6.22
2023-02-16T17:51:50.637Z,4.22
2023-02-16T17:54:17.519Z,4.68
2023-02-16T17:56:45.543Z,5.97
2023-02-16T17:59:15.404Z,5.70
2023-02-16T18:01:43.682Z,4.97
2023-02-16T18:04:10.469Z,5.20
2023-02-16T18:06:37.334Z,6.35
2023-02-16T18:09:04.387Z,3.40
2023-02-16T18:11:31.203Z,6.63
2023-02-16T18:13:57.938Z,6.00
2023-02-16T18:16:27.037Z,8.10
2023-02-16T18:18:53.890Z,7.75
2023-02-16T18:21:20.712Z,3.88
2023-02-16T18:23:47.436Z,4.35
2023-02-16T18:26:15.770Z,9.23
2023-02-16T18:28:42.835Z,5.13
2023-02-16T18:31:10.436Z,4.70
2023-02-16T18:33:37.185Z,5.88
2023-02-16T18:36:04.601Z,3.88
2023-02-16T18:38:31.772Z,5.50
2023-02-16T18:40:58.791Z,5.45
2023-02-16T18:43:25.556Z,5.65
2023-02-16T18:45:52.371Z,4.72
2023-02-16T18:48:19.112Z,3.85
2023-02-16T18:50:45.874Z,3.25
2023-02-16T18:53:12.834Z,4.35
2023-02-16T18:55:39.685Z,5.70
2023-02-16T18:58:08.259Z,2.22
2023-02-16T19:00:36.692Z,3.60
2023-02-16T19:03:03.822Z,6.93
2023-02-16T19:05:30.723Z,3.17
2023-02-16T19:07:57.452Z,3.88
2023-02-16T19:10:25.070Z,5.13
2023-02-16T19:12:51.958Z,3.33
2023-02-16T19:15:18.843Z,4.43
2023-02-16T19:17:45.507Z,4.47
2023-02-16T19:20:16.929Z,6.35
2023-02-16T19:22:45.048Z,7.63
2023-02-16T19:25:11.768Z,5.40
2023-02-16T19:27:38.624Z,4.30
2023-02-16T19:30:06.532Z,4.82
2023-02-16T19:32:33.249Z,8.27
2023-02-16T19:34:59.969Z,4.53
2023-02-16T19:37:33.494Z,5.45
2023-02-16T19:40:00.336Z,5.55
2023-02-16T19:42:27.033Z,5.55
2023-02-16T19:44:53.791Z,5.25
2023-02-16T19:47:20.549Z,7.90
2023-02-16T19:49:47.254Z,6.95
2023-02-16T19:52:13.991Z,6.50
2023-02-16T19:54:40.757Z,6.70
2023-02-16T19:57:07.423Z,5.03
2023-02-16T19:59:34.368Z,7.50
2023-02-16T20:02:01.150Z,6.30
2023-02-16T20:04:28.082Z,4.78
2023-02-16T20:06:56.414Z,7.25
2023-02-16T20:09:23.695Z,3.30
2023-02-16T20:11:51.655Z,5.82
2023-02-16T20:14:18.491Z,4.82
2023-02-16T20:16:45.422Z,9.07
2023-02-16T20:19:12.328Z,4.47
2023-02-16T20:21:40.908Z,7.15
2023-02-16T20:24:07.759Z,4.63
2023-02-16T20:26:37.886Z,11.15
2023-02-16T20:29:06.130Z,4.30
2023-02-16T20:31:42.613Z,5.30
2023-02-16T20:34:10.108Z,3.45
2023-02-16T20:36:37.314Z,6.72
2023-02-16T20:39:04.865Z,5.95
2023-02-16T20:41:31.624Z,7.93
2023-02-16T20:43:58.304Z,6.97
2023-02-16T20:46:26.082Z,7.40
2023-02-16T20:48:53.060Z,5.55
2023-02-16T20:51:20.119Z,6.30
2023-02-16T20:53:47.289Z,5.68
2023-02-16T20:56:20.533Z,5.78
2023-02-16T20:58:49.591Z,7.15
2023-02-16T21:01:16.751Z,7.07
2023-02-16T21:03:43.711Z,9.10
2023-02-16T21:06:10.538Z,7.15
2023-02-16T21:08:37.376Z,5.53
2023-02-16T21:11:04.860Z,4.68
2023-02-16T21:13:31.605Z,4.57
2023-02-16T21:15:58.553Z,5.80
2023-02-16T21:18:25.593Z,7.30
2023-02-16T21:20:52.320Z,5.47
2023-02-16T21:23:19.207Z,4.57
2023-02-16T21:25:45.939Z,5.88
2023-02-16T21:28:12.774Z,5.60
2023-02-16T21:30:40.604Z,4.72
2023-02-16T21:33:07.307Z,5.68
2023-02-16T21:35:34.205Z,5.15
2023-02-16T21:38:01.201Z,5.03
2023-02-16T21:40:46.798Z,5.47
2023-02-16T21:43:13.613Z,5.40
2023-02-16T21:45:40.309Z,4.03
2023-02-16T21:48:25.676Z,5.97
2023-02-16T21:50:52.477Z,4.90
2023-02-16T21:53:19.185Z,5.28
2023-02-16T21:56:04.997Z,7.18
2023-02-16T21:58:33.525Z,3.97
2023-02-16T22:01:00.606Z,4.10
2023-02-16T22:03:27.858Z,4.22
2023-02-16T22:05:54.572Z,6.18
2023-02-16T22:08:21.283Z,6.68
2023-02-16T22:10:48.072Z,6.88
2023-02-16T22:13:14.749Z,6.38
2023-02-16T22:15:41.515Z,6.38
2023-02-16T22:18:08.275Z,7.90
2023-02-16T22:20:35.067Z,6.95
2023-02-16T22:23:02.482Z,7.65
2023-02-16T22:25:29.276Z,4.50
2023-02-16T22:27:56.166Z,13.07
2023-02-16T22:30:22.996Z,7.55
2023-02-16T22:32:51.267Z,5.70
2023-02-16T22:35:18.297Z,9.65
2023-02-16T22:37:44.970Z,4.93
2023-02-16T22:40:11.832Z,8.20
2023-02-16T22:42:38.532Z,6.30
2023-02-16T22:45:05.900Z,5.28
2023-02-16T22:47:32.619Z,7.95
2023-02-16T22:49:59.343Z,11.85
2023-02-16T22:52:26.194Z,7.05
2023-02-16T22:54:53.023Z,5.82
2023-02-16T22:57:19.970Z,7.00
2023-02-16T22:59:46.804Z,6.45
2023-02-16T23:02:13.534Z,9.88
2023-02-16T23:04:42.388Z,6.65
2023-02-16T23:07:10.063Z,15.02
2023-02-16T23:09:36.788Z,7.65
2023-02-16T23:12:03.716Z,9.40
2023-02-16T23:14:30.708Z,7.65
2023-02-16T23:16:57.565Z,15.68
2023-02-16T23:19:26.213Z,14.30
2023-02-16T23:21:53.824Z,6.72
2023-02-16T23:24:22.227Z,6.80
2023-02-16T23:26:49.069Z,5.57
2023-02-16T23:29:16.046Z,9.55
2023-02-16T23:31:44.735Z,9.20
2023-02-16T23:34:11.608Z,8.55
2023-02-16T23:36:39.058Z,11.27
2023-02-16T23:39:09.642Z,8.23
2023-02-16T23:44:04.043Z,7.07
2023-02-16T23:46:30.986Z,6.03
2023-02-16T23:48:57.948Z,4.25
2023-02-16T23:51:24.971Z,7.75
2023-02-16T23:53:51.914Z,5.32
2023-02-16T23:56:21.376Z,9.27
2023-02-16T23:58:49.105Z,7.57
